createdAt,value
2018-11-10T22:03:36.082Z,3.20
2018-11-10T22:06:04.759Z,3.40
2018-11-10T22:08:33.016Z,3.60
2018-11-10T22:11:01.245Z,3.90
2018-11-10T22:13:29.481Z,2.97
2018-11-10T22:15:58.046Z,4.33
2018-11-10T22:18:26.352Z,5.87
2018-11-10T22:20:54.419Z,3.33
2018-11-10T22:23:22.624Z,3.90
2018-11-10T22:25:50.953Z,3.67
2018-11-10T22:28:19.418Z,2.57
2018-11-10T22:30:47.642Z,2.43
2018-11-10T22:33:18.295Z,5.27
2018-11-10T22:35:46.941Z,2.10
2018-11-10T22:38:15.045Z,1.73
2018-11-10T22:40:43.164Z,2.40
2018-11-10T22:43:11.827Z,2.63
2018-11-10T22:45:40.466Z,2.90
2018-11-10T22:48:09.519Z,3.00
2018-11-10T22:50:37.571Z,3.50
2018-11-10T22:53:05.691Z,4.00
2018-11-10T22:55:34.689Z,3.10
2018-11-10T22:58:03.127Z,3.90
2018-11-10T23:00:46.501Z,4.37
2018-11-10T23:03:15.443Z,4.50
2018-11-10T23:05:43.559Z,4.90
2018-11-10T23:08:13.244Z,4.90
2018-11-10T23:10:41.548Z,4.80
2018-11-10T23:13:09.620Z,5.63
2018-11-10T23:15:37.891Z,5.30
2018-11-10T23:18:06.207Z,5.40
2018-11-10T23:20:34.988Z,5.87
2018-11-10T23:23:03.484Z,7.17
2018-11-10T23:25:31.744Z,7.53
2018-11-10T23:28:00.159Z,7.23
2018-11-10T23:30:28.504Z,8.00
2018-11-10T23:32:57.094Z,8.37
2018-11-10T23:35:25.247Z,7.87
2018-11-10T23:37:53.341Z,8.07
2018-11-10T23:40:21.919Z,9.30
2018-11-10T23:43:03.143Z,8.73
2018-11-10T23:45:31.306Z,10.10
2018-11-10T23:47:59.848Z,10.20
2018-11-10T23:50:28.105Z,9.93
2018-11-10T23:52:56.587Z,8.93
2018-11-10T23:55:24.796Z,9.70
2018-11-10T23:57:52.928Z,10.10
